Time;durP1;ratioP1;P1;durP2;ratioP2;P2;SDS_P1;SDS_P2;PMS_P1;PMS_P2;Temp;Humidity;BMP_temperature;BMP_pressure;BME280_temperature;BME280_humidity;BME280_pressure;Samples;Min_cycle;Max_cycle;Signal;HPM_P1;HPM_P2
2022/03/11 00:00:13;;;;;;;14.70;8.73;;;;;;;;;;5120145;27;20061;-72
2022/03/11 00:02:39;;;;;;;14.13;8.48;;;;;;;;;;5112795;28;20047;-72
2022/03/11 00:05:05;;;;;;;14.27;7.80;;;;;;;;;;5112379;28;20093;-72
2022/03/11 00:07:31;;;;;;;13.95;8.68;;;;;;;;;;5088557;28;20478;-72
2022/03/11 00:09:57;;;;;;;14.27;7.90;;;;;;;;;;5108746;28;20051;-72
2022/03/11 00:12:24;;;;;;;13.70;8.43;;;;;;;;;;5109231;28;20039;-72
2022/03/11 00:14:51;;;;;;;15.63;9.07;;;;;;;;;;5110918;28;20429;-73
2022/03/11 00:17:17;;;;;;;15.88;8.75;;;;;;;;;;5108259;28;20039;-72
2022/03/11 00:19:45;;;;;;;14.32;8.50;;;;;;;;;;5112399;27;20039;-72
2022/03/11 00:22:12;;;;;;;14.77;8.68;;;;;;;;;;5107954;28;20040;-72
2022/03/11 00:24:38;;;;;;;13.60;8.75;;;;;;;;;;5101578;28;20131;-72
2022/03/11 00:27:04;;;;;;;15.15;8.45;;;;;;;;;;5105292;27;20039;-72
2022/03/11 00:29:30;;;;;;;14.88;8.40;;;;;;;;;;5112877;28;20497;-72
2022/03/11 00:31:56;;;;;;;15.13;9.00;;;;;;;;;;5088043;28;20040;-72
2022/03/11 00:34:22;;;;;;;15.00;8.07;;;;;;;;;;5113264;28;20094;-72
2022/03/11 00:36:48;;;;;;;12.25;7.88;;;;;;;;;;5104282;28;20062;-72
2022/03/11 00:39:14;;;;;;;13.68;9.05;;;;;;;;;;5111463;28;20130;-72
2022/03/11 00:41:41;;;;;;;15.27;8.40;;;;;;;;;;5109611;28;20443;-73
2022/03/11 00:44:07;;;;;;;15.80;8.35;;;;;;;;;;5108493;28;20126;-72
2022/03/11 00:46:33;;;;;;;13.90;8.80;;;;;;;;;;5094230;28;20659;-72
2022/03/11 00:48:59;;;;;;;16.08;9.70;;;;;;;;;;5116317;27;20050;-73
2022/03/11 00:51:25;;;;;;;13.63;9.00;;;;;;;;;;5102955;28;20040;-72
2022/03/11 00:53:51;;;;;;;15.57;8.43;;;;;;;;;;5105532;28;20085;-72
2022/03/11 00:56:17;;;;;;;16.15;9.60;;;;;;;;;;5110971;28;20043;-72
2022/03/11 00:58:46;;;;;;;17.17;10.05;;;;;;;;;;5106704;27;20043;-73
2022/03/11 01:01:12;;;;;;;16.13;9.75;;;;;;;;;;5108018;28;20039;-73
2022/03/11 01:03:38;;;;;;;15.75;9.70;;;;;;;;;;5101564;28;20059;-73
2022/03/11 01:06:04;;;;;;;17.70;10.32;;;;;;;;;;5088329;28;20127;-73
2022/03/11 01:08:30;;;;;;;17.75;10.45;;;;;;;;;;5106058;27;20477;-72
2022/03/11 01:10:56;;;;;;;14.95;9.40;;;;;;;;;;5110411;28;20498;-71
2022/03/11 01:13:22;;;;;;;15.77;9.65;;;;;;;;;;5100109;28;20698;-72
2022/03/11 01:15:48;;;;;;;17.10;9.88;;;;;;;;;;5105061;28;20413;-72
2022/03/11 01:18:14;;;;;;;18.10;10.70;;;;;;;;;;5120925;28;20051;-72
2022/03/11 01:20:41;;;;;;;19.92;10.98;;;;;;;;;;5108017;28;20051;-72
2022/03/11 01:23:07;;;;;;;16.27;10.57;;;;;;;;;;5104077;28;20463;-72
2022/03/11 01:25:33;;;;;;;18.83;12.00;;;;;;;;;;5112445;28;20048;-72
2022/03/11 01:27:59;;;;;;;16.92;11.13;;;;;;;;;;5110556;28;20065;-72
2022/03/11 01:30:25;;;;;;;19.48;11.68;;;;;;;;;;5106030;28;20070;-72
2022/03/11 01:32:51;;;;;;;17.85;11.85;;;;;;;;;;5104018;28;20468;-72
2022/03/11 01:35:17;;;;;;;19.30;12.10;;;;;;;;;;5114203;28;20043;-73
2022/03/11 01:37:43;;;;;;;19.85;11.93;;;;;;;;;;5081913;28;20070;-73
2022/03/11 01:40:09;;;;;;;19.02;12.40;;;;;;;;;;5109689;28;20482;-72
2022/03/11 01:42:36;;;;;;;17.95;11.70;;;;;;;;;;5109923;28;20055;-72
2022/03/11 01:45:03;;;;;;;17.52;11.63;;;;;;;;;;5115732;28;20497;-72
2022/03/11 01:47:29;;;;;;;23.00;12.80;;;;;;;;;;5118333;27;20401;-72
2022/03/11 01:49:55;;;;;;;18.33;13.00;;;;;;;;;;5110054;27;20036;-73
2022/03/11 01:52:22;;;;;;;19.98;13.00;;;;;;;;;;5115545;28;20165;-72
2022/03/11 01:54:49;;;;;;;20.38;12.75;;;;;;;;;;5113659;28;20038;-71
2022/03/11 01:57:15;;;;;;;19.65;13.50;;;;;;;;;;5116833;28;20054;-71
2022/03/11 01:59:43;;;;;;;22.83;14.38;;;;;;;;;;5113454;27;20046;-73
2022/03/11 02:02:10;;;;;;;21.63;14.15;;;;;;;;;;5113777;28;20046;-72
2022/03/11 02:04:36;;;;;;;21.17;13.73;;;;;;;;;;5113049;28;20152;-72
2022/03/11 02:07:04;;;;;;;18.75;13.15;;;;;;;;;;5097803;28;20044;-71
2022/03/11 02:09:30;;;;;;;20.40;14.90;;;;;;;;;;5113020;27;20040;-72
2022/03/11 02:11:56;;;;;;;21.33;13.48;;;;;;;;;;5088594;28;20096;-72
2022/03/11 02:14:22;;;;;;;21.02;13.52;;;;;;;;;;5110467;28;20043;-72
2022/03/11 02:16:48;;;;;;;20.42;13.63;;;;;;;;;;5114536;28;20051;-72
2022/03/11 02:19:14;;;;;;;21.42;12.88;;;;;;;;;;5122955;27;20087;-72
2022/03/11 02:21:45;;;;;;;23.05;15.45;;;;;;;;;;5115345;28;20417;-72
2022/03/11 02:24:12;;;;;;;24.92;15.15;;;;;;;;;;5113456;28;20517;-72
2022/03/11 02:26:38;;;;;;;21.98;15.45;;;;;;;;;;5106945;28;20044;-72
2022/03/11 02:29:06;;;;;;;22.50;15.38;;;;;;;;;;5113396;27;20040;-72
2022/03/11 02:31:32;;;;;;;24.25;16.45;;;;;;;;;;5110661;28;20134;-72
2022/03/11 02:33:59;;;;;;;23.38;16.05;;;;;;;;;;5101693;28;20040;-72
2022/03/11 02:36:25;;;;;;;22.67;15.73;;;;;;;;;;5113196;28;20039;-72
2022/03/11 02:38:52;;;;;;;26.48;16.42;;;;;;;;;;5122910;27;20047;-73
2022/03/11 02:41:18;;;;;;;24.83;16.35;;;;;;;;;;5100377;28;20044;-73
2022/03/11 02:43:44;;;;;;;23.25;16.40;;;;;;;;;;5106353;28;20047;-73
2022/03/11 02:46:12;;;;;;;24.63;16.80;;;;;;;;;;5103814;28;20554;-71
2022/03/11 02:48:39;;;;;;;23.65;16.58;;;;;;;;;;5095873;27;20114;-72
2022/03/11 02:51:05;;;;;;;26.27;16.70;;;;;;;;;;5115508;28;20050;-72
2022/03/11 02:53:31;;;;;;;31.30;18.52;;;;;;;;;;5111147;28;20047;-72
2022/03/11 02:55:58;;;;;;;26.92;17.65;;;;;;;;;;5109331;28;20046;-72
2022/03/11 02:58:24;;;;;;;24.27;17.52;;;;;;;;;;5096358;28;20040;-72
2022/03/11 03:00:50;;;;;;;25.58;17.23;;;;;;;;;;5113321;27;20036;-72
2022/03/11 03:03:16;;;;;;;30.35;19.17;;;;;;;;;;5113888;28;20066;-72
2022/03/11 03:05:42;;;;;;;26.27;17.70;;;;;;;;;;5113989;27;20043;-72
2022/03/11 03:08:08;;;;;;;28.42;18.77;;;;;;;;;;5106660;28;20040;-72
2022/03/11 03:10:34;;;;;;;28.08;17.90;;;;;;;;;;5110600;27;20458;-72
2022/03/11 03:13:00;;;;;;;28.35;18.35;;;;;;;;;;5104103;28;20048;-72
2022/03/11 03:15:26;;;;;;;28.77;18.73;;;;;;;;;;5102840;28;20125;-72
2022/03/11 03:17:52;;;;;;;32.50;19.17;;;;;;;;;;5114897;28;20046;-72
2022/03/11 03:20:18;;;;;;;26.75;18.27;;;;;;;;;;5112329;27;20044;-72
2022/03/11 03:22:44;;;;;;;27.90;19.30;;;;;;;;;;5113865;28;20760;-72
2022/03/11 03:25:10;;;;;;;28.13;19.27;;;;;;;;;;5112365;27;20044;-72
2022/03/11 03:27:36;;;;;;;27.13;19.08;;;;;;;;;;5094997;28;20052;-71
2022/03/11 03:30:05;;;;;;;29.48;19.88;;;;;;;;;;5101237;28;20036;-71
2022/03/11 03:32:32;;;;;;;28.58;18.55;;;;;;;;;;5114280;28;20097;-72
2022/03/11 03:34:58;;;;;;;29.50;19.85;;;;;;;;;;5110384;28;20123;-72
2022/03/11 03:37:24;;;;;;;26.40;17.90;;;;;;;;;;5115063;28;20071;-72
2022/03/11 03:39:50;;;;;;;29.95;19.58;;;;;;;;;;5108681;27;20446;-72
2022/03/11 03:42:16;;;;;;;31.67;19.35;;;;;;;;;;5111461;28;20067;-72
2022/03/11 03:44:41;;;;;;;28.60;19.63;;;;;;;;;;5103600;28;20402;-71
2022/03/11 03:47:08;;;;;;;29.15;19.73;;;;;;;;;;5106573;28;20047;-72
2022/03/11 03:49:34;;;;;;;29.17;20.42;;;;;;;;;;5103800;27;20520;-72
2022/03/11 03:52:01;;;;;;;33.38;19.52;;;;;;;;;;5109590;28;20524;-72
2022/03/11 03:54:27;;;;;;;31.30;19.75;;;;;;;;;;5108924;28;20063;-72
2022/03/11 03:56:53;;;;;;;30.02;20.63;;;;;;;;;;5116522;27;20150;-73
2022/03/11 03:59:19;;;;;;;30.60;20.70;;;;;;;;;;5090591;28;20459;-73
2022/03/11 04:01:45;;;;;;;27.83;19.48;;;;;;;;;;5104559;28;20096;-73
2022/03/11 04:04:12;;;;;;;29.92;20.30;;;;;;;;;;5105717;28;20110;-73
2022/03/11 04:06:39;;;;;;;29.20;20.08;;;;;;;;;;5095559;28;20048;-72
2022/03/11 04:09:06;;;;;;;30.70;19.85;;;;;;;;;;5109241;28;20040;-72
2022/03/11 04:11:32;;;;;;;27.92;20.17;;;;;;;;;;5110123;28;20058;-72
2022/03/11 04:13:59;;;;;;;29.58;20.40;;;;;;;;;;5112770;28;20099;-73
2022/03/11 04:16:26;;;;;;;33.50;20.48;;;;;;;;;;5119011;27;20039;-73
2022/03/11 04:18:52;;;;;;;27.60;18.70;;;;;;;;;;5114076;27;20047;-73
2022/03/11 04:21:19;;;;;;;29.60;19.85;;;;;;;;;;5107119;28;20036;-72
2022/03/11 04:23:46;;;;;;;29.48;19.27;;;;;;;;;;5089965;28;20506;-72
2022/03/11 04:26:12;;;;;;;30.83;21.33;;;;;;;;;;5116629;27;20096;-72
2022/03/11 04:28:38;;;;;;;31.40;20.23;;;;;;;;;;5112595;27;20059;-72
2022/03/11 04:31:05;;;;;;;27.85;20.20;;;;;;;;;;5113488;28;20035;-73
2022/03/11 04:33:31;;;;;;;27.80;20.15;;;;;;;;;;5109594;28;20119;-73
2022/03/11 04:35:58;;;;;;;29.38;19.88;;;;;;;;;;5106322;27;20052;-72
2022/03/11 04:38:24;;;;;;;30.92;19.98;;;;;;;;;;5111411;27;20059;-72
2022/03/11 04:40:50;;;;;;;30.88;20.35;;;;;;;;;;5110490;28;20055;-72
2022/03/11 04:43:16;;;;;;;30.60;21.52;;;;;;;;;;5115317;27;20106;-72
2022/03/11 04:45:42;;;;;;;28.27;19.88;;;;;;;;;;5105820;28;20047;-72
2022/03/11 04:48:08;;;;;;;27.48;20.15;;;;;;;;;;5107763;27;20044;-72
2022/03/11 04:50:34;;;;;;;29.83;20.45;;;;;;;;;;5107168;28;20063;-72
2022/03/11 04:53:00;;;;;;;28.25;19.92;;;;;;;;;;5111082;28;20051;-72
2022/03/11 04:55:26;;;;;;;29.65;20.38;;;;;;;;;;5106379;28;20051;-72
2022/03/11 04:57:52;;;;;;;31.60;20.40;;;;;;;;;;5112393;28;20039;-72
2022/03/11 05:00:18;;;;;;;29.65;20.35;;;;;;;;;;5111907;28;20035;-72
2022/03/11 05:02:45;;;;;;;33.00;22.50;;;;;;;;;;5111484;28;20104;-73
2022/03/11 05:05:12;;;;;;;27.30;19.98;;;;;;;;;;5105603;28;20051;-72
2022/03/11 05:07:38;;;;;;;27.98;20.02;;;;;;;;;;5095249;28;20052;-72
2022/03/11 05:10:08;;;;;;;33.38;20.58;;;;;;;;;;5096292;28;20544;-72
2022/03/11 05:12:38;;;;;;;27.75;20.17;;;;;;;;;;5114043;28;20066;-72
2022/03/11 05:15:05;;;;;;;29.63;20.55;;;;;;;;;;5111610;28;20413;-72
2022/03/11 05:17:31;;;;;;;31.45;21.58;;;;;;;;;;5092964;28;20044;-72
2022/03/11 05:19:58;;;;;;;32.55;20.17;;;;;;;;;;5110037;28;20062;-72
2022/03/11 05:22:24;;;;;;;32.15;21.05;;;;;;;;;;5111028;28;20520;-72
2022/03/11 05:24:50;;;;;;;29.70;20.02;;;;;;;;;;5104150;28;20043;-72
2022/03/11 05:27:16;;;;;;;28.13;19.25;;;;;;;;;;5109162;28;20043;-72
2022/03/11 05:29:46;;;;;;;30.10;21.00;;;;;;;;;;5111716;28;20048;-72
2022/03/11 05:32:14;;;;;;;31.15;19.63;;;;;;;;;;5112469;28;20077;-72
2022/03/11 05:34:42;;;;;;;29.98;20.75;;;;;;;;;;5110437;28;20046;-72
2022/03/11 05:37:08;;;;;;;37.17;21.05;;;;;;;;;;5095780;28;20050;-72
2022/03/11 05:39:34;;;;;;;28.05;19.65;;;;;;;;;;5103780;28;20039;-73
2022/03/11 05:42:00;;;;;;;29.23;21.27;;;;;;;;;;5110773;28;20047;-72
2022/03/11 05:44:27;;;;;;;33.33;20.75;;;;;;;;;;5098110;28;20405;-73
2022/03/11 05:46:53;;;;;;;32.08;19.88;;;;;;;;;;5111992;28;20517;-73
2022/03/11 05:49:19;;;;;;;29.75;19.33;;;;;;;;;;5093006;28;20039;-72
2022/03/11 05:51:45;;;;;;;30.70;20.42;;;;;;;;;;5110455;28;20043;-71
2022/03/11 05:54:12;;;;;;;29.58;19.77;;;;;;;;;;5105579;28;20093;-72
2022/03/11 05:56:38;;;;;;;27.17;17.52;;;;;;;;;;5104612;28;20036;-73
2022/03/11 05:59:04;;;;;;;28.75;17.80;;;;;;;;;;5107920;28;20059;-73
2022/03/11 06:01:33;;;;;;;29.75;19.98;;;;;;;;;;5111182;28;20421;-73
2022/03/11 06:04:01;;;;;;;26.65;19.15;;;;;;;;;;5087791;28;20496;-73
2022/03/11 06:06:30;;;;;;;29.13;20.27;;;;;;;;;;5123440;28;20054;-71
2022/03/11 06:08:56;;;;;;;29.52;20.13;;;;;;;;;;5127249;28;20039;-72
2022/03/11 06:11:22;;;;;;;31.67;21.00;;;;;;;;;;5110656;28;20063;-72
2022/03/11 06:13:49;;;;;;;30.85;20.92;;;;;;;;;;5079509;28;21352;-72
2022/03/11 06:16:15;;;;;;;31.35;20.40;;;;;;;;;;5107895;28;20044;-72
2022/03/11 06:18:41;;;;;;;28.33;19.80;;;;;;;;;;5114687;28;20043;-72
2022/03/11 06:21:08;;;;;;;27.23;18.73;;;;;;;;;;5114772;28;20055;-72
2022/03/11 06:23:35;;;;;;;28.98;17.00;;;;;;;;;;5109494;28;20039;-72
2022/03/11 06:26:01;;;;;;;31.00;19.23;;;;;;;;;;5113306;27;20337;-71
2022/03/11 06:28:28;;;;;;;28.25;19.63;;;;;;;;;;5112131;28;20049;-72
2022/03/11 06:30:54;;;;;;;29.30;18.90;;;;;;;;;;5112463;28;20447;-73
2022/03/11 06:33:23;;;;;;;31.02;19.52;;;;;;;;;;5112088;27;20040;-73
2022/03/11 06:35:50;;;;;;;29.17;18.85;;;;;;;;;;5115927;28;20043;-73
2022/03/11 06:38:16;;;;;;;28.77;20.17;;;;;;;;;;5104722;28;20109;-72
2022/03/11 06:40:42;;;;;;;28.08;18.27;;;;;;;;;;5109523;28;20044;-72
2022/03/11 06:43:08;;;;;;;28.45;19.10;;;;;;;;;;5112208;28;20044;-72
2022/03/11 06:45:34;;;;;;;29.17;19.60;;;;;;;;;;5111736;28;20043;-72
2022/03/11 06:48:01;;;;;;;27.10;19.63;;;;;;;;;;5066000;22;20053;-89
2022/03/11 06:50:29;;;;;;;28.60;19.77;;;;;;;;;;5061412;28;20049;-91
2022/03/11 06:52:56;;;;;;;28.15;19.63;;;;;;;;;;5057220;28;20048;-85
2022/03/11 06:55:22;;;;;;;32.53;18.60;;;;;;;;;;5037402;28;20048;-88
2022/03/11 06:57:48;;;;;;;28.00;20.35;;;;;;;;;;5026351;28;20536;-88
2022/03/11 07:00:14;;;;;;;30.50;20.67;;;;;;;;;;5038969;28;20080;-88
2022/03/11 07:02:41;;;;;;;29.90;20.27;;;;;;;;;;5040553;28;20075;-87
2022/03/11 07:05:08;;;;;;;28.35;19.27;;;;;;;;;;5058025;28;20041;-87
2022/03/11 07:07:34;;;;;;;31.63;18.38;;;;;;;;;;5021962;28;20459;-87
2022/03/11 07:10:00;;;;;;;26.85;18.75;;;;;;;;;;5034212;28;20041;-88
2022/03/11 07:12:28;;;;;;;27.27;19.23;;;;;;;;;;5040558;28;20045;-88
2022/03/11 07:14:54;;;;;;;24.83;18.30;;;;;;;;;;5034351;28;20059;-87
2022/03/11 07:17:20;;;;;;;28.10;18.67;;;;;;;;;;5051690;28;20041;-87
2022/03/11 07:19:46;;;;;;;27.45;19.70;;;;;;;;;;5039140;28;20048;-89
2022/03/11 07:22:12;;;;;;;27.95;18.05;;;;;;;;;;5060908;28;20049;-89
2022/03/11 07:24:39;;;;;;;26.83;19.70;;;;;;;;;;5046986;28;20130;-87
2022/03/11 07:27:05;;;;;;;27.17;19.08;;;;;;;;;;5060307;28;20076;-88
2022/03/11 07:29:31;;;;;;;23.73;18.02;;;;;;;;;;5058022;28;20052;-88
2022/03/11 07:31:57;;;;;;;26.00;19.02;;;;;;;;;;5058489;28;20048;-88
2022/03/11 07:34:26;;;;;;;27.95;19.58;;;;;;;;;;5021169;28;20084;-90
2022/03/11 07:36:52;;;;;;;26.02;17.58;;;;;;;;;;5055489;28;20064;-90
2022/03/11 07:39:19;;;;;;;25.98;19.27;;;;;;;;;;5030185;28;20056;-89
2022/03/11 07:41:45;;;;;;;25.30;19.10;;;;;;;;;;5032872;28;20049;-89
2022/03/11 07:44:12;;;;;;;25.25;18.65;;;;;;;;;;5045420;28;20033;-89
2022/03/11 07:46:38;;;;;;;24.20;18.52;;;;;;;;;;5060593;28;20113;-88
2022/03/11 07:49:04;;;;;;;25.73;19.45;;;;;;;;;;5045562;28;20053;-88
2022/03/11 07:51:30;;;;;;;26.02;19.52;;;;;;;;;;5067637;28;20090;-89
2022/03/11 07:53:56;;;;;;;25.60;19.08;;;;;;;;;;5031493;28;20053;-88
2022/03/11 07:56:23;;;;;;;25.02;18.75;;;;;;;;;;5037079;28;20040;-88
2022/03/11 07:58:49;;;;;;;25.08;19.17;;;;;;;;;;5049318;28;20072;-88
2022/03/11 08:01:15;;;;;;;25.85;19.10;;;;;;;;;;5036250;28;20056;-88
2022/03/11 08:03:42;;;;;;;23.02;18.58;;;;;;;;;;5054341;28;20049;-89
2022/03/11 08:06:08;;;;;;;26.38;18.70;;;;;;;;;;5043840;28;20048;-88
2022/03/11 08:08:34;;;;;;;26.02;19.08;;;;;;;;;;5023863;28;20144;-88
2022/03/11 08:11:00;;;;;;;27.52;17.95;;;;;;;;;;5035809;28;20061;-90
2022/03/11 08:13:27;;;;;;;25.83;19.13;;;;;;;;;;5077509;28;20021;-90
2022/03/11 08:15:53;;;;;;;26.08;18.75;;;;;;;;;;5058313;28;20052;-91
2022/03/11 08:18:20;;;;;;;26.83;19.20;;;;;;;;;;5043195;28;20021;-91
2022/03/11 08:20:46;;;;;;;22.83;16.17;;;;;;;;;;5061438;28;20028;-90
2022/03/11 08:23:12;;;;;;;29.35;20.25;;;;;;;;;;5044591;28;20104;-91
2022/03/11 08:25:38;;;;;;;25.95;19.17;;;;;;;;;;5076720;28;20041;-90
2022/03/11 08:28:10;;;;;;;28.02;19.50;;;;;;;;;;5053079;28;20060;-88
2022/03/11 08:30:43;;;;;;;25.75;18.08;;;;;;;;;;5030871;28;20041;-89
2022/03/11 08:33:11;;;;;;;27.15;17.30;;;;;;;;;;5062177;28;20071;-89
2022/03/11 08:35:38;;;;;;;25.02;18.67;;;;;;;;;;5042349;28;20131;-89
2022/03/11 08:38:06;;;;;;;25.10;19.30;;;;;;;;;;5061299;28;20064;-89
2022/03/11 08:40:32;;;;;;;24.88;19.02;;;;;;;;;;5044147;28;20054;-89
2022/03/11 08:42:58;;;;;;;25.52;19.05;;;;;;;;;;5047219;28;20051;-90
2022/03/11 08:45:24;;;;;;;27.45;20.00;;;;;;;;;;5042176;28;20045;-87
2022/03/11 08:47:51;;;;;;;27.00;19.20;;;;;;;;;;5057905;28;20053;-90
2022/03/11 08:50:18;;;;;;;26.98;18.52;;;;;;;;;;5019864;28;20045;-89
2022/03/11 08:52:45;;;;;;;26.95;19.25;;;;;;;;;;5055023;28;20094;-87
2022/03/11 08:55:12;;;;;;;25.20;18.35;;;;;;;;;;5043139;28;20390;-90
2022/03/11 08:57:38;;;;;;;27.80;19.15;;;;;;;;;;5030130;28;20067;-88
2022/03/11 09:00:05;;;;;;;26.60;18.10;;;;;;;;;;5039782;28;20040;-90
2022/03/11 09:02:32;;;;;;;26.15;19.38;;;;;;;;;;5054517;28;20135;-90
2022/03/11 09:04:58;;;;;;;26.88;19.33;;;;;;;;;;5020220;28;20040;-90
2022/03/11 09:07:29;;;;;;;25.77;18.20;;;;;;;;;;5053247;28;20053;-89
2022/03/11 09:09:55;;;;;;;27.75;19.75;;;;;;;;;;5053286;28;20049;-90
2022/03/11 09:12:21;;;;;;;25.55;18.15;;;;;;;;;;5020132;28;20048;-88
2022/03/11 09:14:47;;;;;;;24.40;18.98;;;;;;;;;;5036002;28;20041;-88
2022/03/11 09:17:13;;;;;;;27.33;18.63;;;;;;;;;;5055913;28;20041;-89
2022/03/11 09:19:42;;;;;;;27.35;19.10;;;;;;;;;;5036181;28;20483;-89
2022/03/11 09:22:08;;;;;;;26.02;18.63;;;;;;;;;;5039742;28;20037;-90
2022/03/11 09:24:35;;;;;;;25.05;18.15;;;;;;;;;;5034457;28;20049;-88
2022/03/11 09:27:01;;;;;;;25.23;18.55;;;;;;;;;;5035857;28;20094;-88
2022/03/11 09:29:30;;;;;;;26.45;18.05;;;;;;;;;;5053769;28;20057;-86
2022/03/11 09:31:57;;;;;;;25.08;18.23;;;;;;;;;;5053716;28;20502;-88
2022/03/11 09:34:24;;;;;;;26.65;18.30;;;;;;;;;;5058256;28;20051;-88
2022/03/11 09:36:52;;;;;;;30.20;19.13;;;;;;;;;;5055241;28;20044;-89
2022/03/11 09:39:18;;;;;;;26.02;18.52;;;;;;;;;;5039780;28;20098;-89
2022/03/11 09:41:45;;;;;;;23.30;14.82;;;;;;;;;;5043615;28;20049;-88
2022/03/11 09:44:13;;;;;;;26.33;17.40;;;;;;;;;;5061061;28;20405;-89
2022/03/11 09:46:40;;;;;;;25.40;17.35;;;;;;;;;;5044144;28;20110;-89
2022/03/11 09:49:06;;;;;;;25.65;18.88;;;;;;;;;;5022443;28;20048;-89
2022/03/11 09:51:34;;;;;;;24.60;18.42;;;;;;;;;;5037151;28;20041;-87
2022/03/11 09:54:00;;;;;;;25.88;19.30;;;;;;;;;;5039319;28;20045;-89
2022/03/11 09:56:26;;;;;;;23.58;16.15;;;;;;;;;;5040840;28;20053;-87
2022/03/11 09:58:53;;;;;;;26.00;18.52;;;;;;;;;;5040149;28;20056;-89
2022/03/11 10:01:19;;;;;;;24.75;18.27;;;;;;;;;;5062455;28;20045;-89
2022/03/11 10:03:45;;;;;;;28.45;18.23;;;;;;;;;;5024689;28;20493;-88
2022/03/11 10:06:11;;;;;;;27.83;18.33;;;;;;;;;;5051029;28;20037;-89
2022/03/11 10:08:39;;;;;;;23.20;18.15;;;;;;;;;;5063314;28;20073;-89
2022/03/11 10:11:24;;;;;;;24.10;18.02;;;;;;;;;;5060299;28;20049;-87
2022/03/11 10:13:54;;;;;;;27.63;18.25;;;;;;;;;;5044958;28;20102;-88
2022/03/11 10:16:24;;;;;;;28.33;18.48;;;;;;;;;;5041952;28;20041;-86
2022/03/11 10:19:10;;;;;;;24.27;17.70;;;;;;;;;;5057336;28;20049;-88
2022/03/11 10:21:43;;;;;;;24.70;16.65;;;;;;;;;;5063296;28;20097;-88
2022/03/11 10:24:10;;;;;;;24.98;17.08;;;;;;;;;;5027123;28;20590;-88
2022/03/11 10:26:39;;;;;;;26.23;17.48;;;;;;;;;;5040731;28;20045;-88
2022/03/11 10:29:07;;;;;;;28.63;18.95;;;;;;;;;;5024852;28;20044;-88
2022/03/11 10:31:37;;;;;;;25.00;17.85;;;;;;;;;;5024692;28;20037;-90
2022/03/11 10:34:12;;;;;;;25.13;16.73;;;;;;;;;;5058977;28;20045;-90
2022/03/11 10:36:46;;;;;;;24.83;16.40;;;;;;;;;;5027337;28;20072;-90
2022/03/11 10:39:17;;;;;;;27.48;18.42;;;;;;;;;;5049662;28;20081;-88
2022/03/11 10:41:43;;;;;;;24.92;16.92;;;;;;;;;;5047693;28;20055;-88
2022/03/11 10:44:11;;;;;;;22.15;15.85;;;;;;;;;;5045373;28;20152;-89
2022/03/11 10:46:38;;;;;;;21.85;16.65;;;;;;;;;;5050679;28;20049;-87
2022/03/11 10:49:04;;;;;;;22.67;16.05;;;;;;;;;;5054558;28;20097;-87
2022/03/11 10:51:32;;;;;;;22.98;16.60;;;;;;;;;;5039921;28;20045;-89
2022/03/11 10:53:59;;;;;;;22.98;16.73;;;;;;;;;;5068216;28;20073;-89
2022/03/11 10:56:28;;;;;;;23.55;17.65;;;;;;;;;;5031875;28;20044;-90
2022/03/11 10:58:55;;;;;;;24.40;16.52;;;;;;;;;;5032385;28;20131;-89
2022/03/11 11:01:36;;;;;;;24.48;17.48;;;;;;;;;;5016393;28;20064;-89
2022/03/11 11:04:04;;;;;;;23.27;16.10;;;;;;;;;;5052169;28;20105;-86
2022/03/11 11:06:31;;;;;;;23.73;16.05;;;;;;;;;;5051680;28;20141;-82
2022/03/11 11:08:57;;;;;;;23.45;16.33;;;;;;;;;;5061337;28;20509;-84
2022/03/11 11:11:23;;;;;;;25.48;17.02;;;;;;;;;;5060317;28;20044;-84
2022/03/11 11:13:49;;;;;;;24.38;16.17;;;;;;;;;;5058939;28;20048;-84
2022/03/11 11:16:17;;;;;;;23.17;15.00;;;;;;;;;;5060272;28;20104;-84
2022/03/11 11:18:44;;;;;;;21.85;15.88;;;;;;;;;;5041563;28;20409;-84
2022/03/11 11:21:11;;;;;;;21.63;16.02;;;;;;;;;;5058553;28;20055;-84
2022/03/11 11:23:39;;;;;;;22.15;15.32;;;;;;;;;;5057035;28;20383;-84
2022/03/11 11:26:09;;;;;;;23.80;16.25;;;;;;;;;;5059957;28;20063;-84
2022/03/11 11:28:36;;;;;;;24.40;16.20;;;;;;;;;;5059836;28;20084;-83
2022/03/11 11:31:02;;;;;;;25.05;15.75;;;;;;;;;;5040952;28;20052;-83
2022/03/11 11:33:28;;;;;;;22.08;15.43;;;;;;;;;;5060175;28;20048;-84
2022/03/11 11:35:56;;;;;;;22.42;15.90;;;;;;;;;;5057379;28;20049;-84
2022/03/11 11:38:32;;;;;;;22.67;15.70;;;;;;;;;;5058584;28;20047;-84
2022/03/11 11:40:59;;;;;;;22.00;16.05;;;;;;;;;;5040192;28;20080;-84
2022/03/11 11:43:26;;;;;;;25.38;15.57;;;;;;;;;;5040183;28;20083;-85
2022/03/11 11:45:56;;;;;;;24.80;15.35;;;;;;;;;;5056520;28;20041;-84
2022/03/11 11:48:35;;;;;;;20.88;14.73;;;;;;;;;;5057614;28;20045;-83
2022/03/11 11:51:08;;;;;;;20.95;14.57;;;;;;;;;;5057557;28;20036;-84
2022/03/11 11:53:42;;;;;;;21.90;15.32;;;;;;;;;;5022022;28;20521;-84
2022/03/11 11:56:28;;;;;;;20.52;15.05;;;;;;;;;;5039562;28;20047;-84
2022/03/11 11:58:56;;;;;;;22.63;15.23;;;;;;;;;;5056721;28;20041;-84
2022/03/11 12:01:41;;;;;;;20.00;15.07;;;;;;;;;;5056270;28;20171;-84
2022/03/11 12:04:19;;;;;;;22.38;14.23;;;;;;;;;;5037580;28;20490;-84
2022/03/11 12:06:59;;;;;;;17.67;14.10;;;;;;;;;;5055091;28;20049;-84
2022/03/11 12:09:41;;;;;;;19.00;13.98;;;;;;;;;;5036418;28;20470;-84
2022/03/11 12:12:30;;;;;;;20.95;13.60;;;;;;;;;;5056554;28;20103;-85
2022/03/11 12:15:00;;;;;;;20.95;14.98;;;;;;;;;;5051905;28;20486;-85
2022/03/11 12:17:36;;;;;;;22.15;14.43;;;;;;;;;;5059995;28;20076;-84
2022/03/11 12:20:21;;;;;;;18.75;14.07;;;;;;;;;;5060294;28;20487;-82
2022/03/11 12:22:57;;;;;;;20.02;13.45;;;;;;;;;;5054793;28;20087;-84
2022/03/11 12:25:24;;;;;;;19.52;13.65;;;;;;;;;;5033138;28;20555;-81
2022/03/11 12:27:58;;;;;;;20.63;13.52;;;;;;;;;;5053989;28;20082;-82
2022/03/11 12:30:24;;;;;;;24.10;14.02;;;;;;;;;;5054058;28;20494;-82
2022/03/11 12:32:50;;;;;;;17.67;13.38;;;;;;;;;;5054843;28;20049;-82
2022/03/11 12:35:20;;;;;;;21.58;13.45;;;;;;;;;;5056316;28;20037;-82
2022/03/11 12:37:46;;;;;;;19.02;13.30;;;;;;;;;;5036853;28;20037;-83
2022/03/11 12:40:12;;;;;;;22.17;13.15;;;;;;;;;;5052237;28;20040;-82
2022/03/11 12:42:39;;;;;;;19.52;13.40;;;;;;;;;;5053576;28;20037;-84
2022/03/11 12:45:08;;;;;;;19.63;14.43;;;;;;;;;;5054120;28;20124;-83
2022/03/11 12:47:38;;;;;;;19.08;12.60;;;;;;;;;;5055546;28;20082;-83
2022/03/11 12:50:05;;;;;;;20.52;12.63;;;;;;;;;;5053691;28;20059;-83
2022/03/11 12:52:41;;;;;;;17.60;12.68;;;;;;;;;;5048005;28;20115;-83
2022/03/11 12:55:26;;;;;;;19.85;13.35;;;;;;;;;;5053397;28;20033;-83
2022/03/11 12:57:53;;;;;;;19.40;13.45;;;;;;;;;;5039145;28;20521;-83
2022/03/11 13:00:20;;;;;;;18.27;13.82;;;;;;;;;;5036326;28;20048;-83
2022/03/11 13:02:47;;;;;;;19.92;13.02;;;;;;;;;;5052062;28;20098;-83
2022/03/11 13:05:22;;;;;;;18.67;12.82;;;;;;;;;;5046557;28;20521;-83
2022/03/11 13:07:49;;;;;;;21.95;13.75;;;;;;;;;;5048552;28;20170;-84
2022/03/11 13:10:21;;;;;;;19.23;13.48;;;;;;;;;;5019865;28;20118;-82
2022/03/11 13:12:50;;;;;;;30.55;12.88;;;;;;;;;;5020633;28;20037;-83
2022/03/11 13:15:16;;;;;;;19.85;12.85;;;;;;;;;;5056323;28;20052;-83
2022/03/11 13:17:47;;;;;;;18.10;12.38;;;;;;;;;;5058869;28;20048;-83
2022/03/11 13:20:34;;;;;;;16.50;12.30;;;;;;;;;;5055310;28;20048;-83
2022/03/11 13:23:07;;;;;;;18.08;12.07;;;;;;;;;;5054532;28;20041;-85
2022/03/11 13:25:33;;;;;;;20.42;12.25;;;;;;;;;;5060708;28;20045;-85
2022/03/11 13:27:59;;;;;;;16.48;11.82;;;;;;;;;;5043348;28;20049;-84
2022/03/11 13:30:34;;;;;;;19.35;11.43;;;;;;;;;;5043153;28;20045;-84
2022/03/11 13:33:10;;;;;;;16.48;11.60;;;;;;;;;;5060077;28;20045;-84
2022/03/11 13:35:36;;;;;;;18.05;12.00;;;;;;;;;;5042286;28;20415;-82
2022/03/11 13:38:02;;;;;;;17.65;11.52;;;;;;;;;;5060215;28;20128;-83
2022/03/11 13:40:28;;;;;;;16.77;11.02;;;;;;;;;;5058293;28;20135;-83
2022/03/11 13:42:59;;;;;;;17.15;11.23;;;;;;;;;;5056553;28;20068;-84
2022/03/11 13:45:48;;;;;;;15.23;10.90;;;;;;;;;;5059153;28;20045;-83
2022/03/11 13:48:16;;;;;;;16.35;11.02;;;;;;;;;;5055445;28;20057;-84
2022/03/11 13:50:42;;;;;;;15.98;11.40;;;;;;;;;;5039267;28;20060;-84
2022/03/11 13:53:09;;;;;;;16.95;11.20;;;;;;;;;;5058526;28;20049;-83
2022/03/11 13:55:38;;;;;;;19.52;11.25;;;;;;;;;;5057963;28;20068;-83
2022/03/11 13:58:14;;;;;;;17.17;11.70;;;;;;;;;;5060475;28;20040;-83
2022/03/11 14:00:40;;;;;;;17.15;11.18;;;;;;;;;;5058558;28;20048;-83
2022/03/11 14:03:16;;;;;;;18.38;11.13;;;;;;;;;;5051565;28;20128;-84
2022/03/11 14:05:43;;;;;;;15.88;10.63;;;;;;;;;;5056843;28;20520;-84
2022/03/11 14:08:10;;;;;;;16.10;11.30;;;;;;;;;;5051859;28;20040;-84
2022/03/11 14:10:44;;;;;;;17.40;10.65;;;;;;;;;;5051836;28;20055;-84
2022/03/11 14:13:12;;;;;;;16.17;9.32;;;;;;;;;;5039781;28;20106;-84
2022/03/11 14:16:01;;;;;;;15.57;10.80;;;;;;;;;;5038181;28;20075;-83
2022/03/11 14:18:27;;;;;;;16.20;9.23;;;;;;;;;;5069007;28;20045;-83
2022/03/11 14:20:53;;;;;;;16.10;9.15;;;;;;;;;;5078075;28;20048;-83